NEODyS-2

Near Earth Objects - Dynamic Site
NEODyS ∴ Observatories ∴ Site 691 ∴ Obs & residuals
Contact »
691  ▹ 
OBSERVATIONS AND RESIDUALS

691-Steward Observatory, Kitt Peak-Spacewatch

Detections | Residuals | Detections & Residuals

[1-200] [201-400] [401-600] [601-800] [801-1000] [1001-1200] [1201-1400] [1401-1600] [1601-1800] [1801-2000] [2001-2200] [2201-2400] [2401-2600] [2601-2800] [2801-3000] [3001-3200] [3201-3400] [3401-3600] [3601-3800] [3801-4000] [4001-4200] [4201-4400] [4401-4600] [4601-4800] [4801-5000] [5001-5200] [5201-5400] [5401-5600] [5601-5800] [5801-6000] [6001-6200] [6201-6400] [6401-6600] [6601-6800] [6801-7000] [7001-7200] [7201-7400] [7401-7600] [7601-7800] [7801-8000] [8001-8200] [8201-8400] [8401-8600] [8601-8800] [8801-9000] [9001-9200] [9201-9400] [9401-9600] [9601-9800] [9801-10000] [10001-10200] [10201-10400] [10401-10600] [10601-10800] [10801-11000] [11001-11200] [11201-11400] [11401-11600] [11601-11800] [11801-12000] [12001-12200] [12201-12400] [12401-12600] [12601-12800] [12801-13000] [13001-13200] [13201-13400] [13401-13600] [13601-13800] [13801-14000] [14001-14200] [14201-14400] [14401-14600] [14601-14800] [14801-15000] [15001-15200] [15201-15400] [15401-15600] [15601-15800] [15801-16000] [16001-16200] [16201-16400] [16401-16600] [16601-16800] [16801-17000] [17001-17200] [17201-17400] [17401-17600] [17601-17800] [17801-18000] [18001-18200] [18201-18400] [18401-18600] [18601-18800] [18801-19000] [19001-19200] [19201-19400] [19401-19600] [19601-19800] [19801-20000] [20001-20200] [20201-20400] [20401-20600] [20601-20800] [20801-21000] [21001-21200] [21201-21400] [21401-21600] [21601-21800] [21801-22000] [22001-22200] [22201-22400] [22401-22600] [22601-22800] [22801-23000] [23001-23200] [23201-23400] [23401-23600] [23601-23800] [23801-24000] [24001-24200] [24201-24400] [24401-24600] [24601-24800] [24801-25000] [25001-25200] [25201-25400] [25401-25600] [25601-25800] [25801-26000] [26001-26200] [26201-26400] [26401-26600] [26601-26800] [26801-27000] [27001-27200] [27201-27400] [27401-27600] [27601-27800] [27801-28000] [28001-28200] [28201-28400] [28401-28600] [28601-28800] [28801-29000] [29001-29200] [29201-29400] [29401-29600] [29601-29800] [29801-30000] [30001-30200] [30201-30400] [30401-30600] [30601-30800] [30801-31000] [31001-31200] [31201-31400] [31401-31600] [31601-31800] [31801-32000] [32001-32200] [32201-32400] [32401-32600] [32601-32800] [32801-33000] [33001-33200] [33201-33400] [33401-33600] [33601-33800] [33801-34000] [34001-34200] [34201-34400] [34401-34600] [34601-34800] [34801-35000] [35001-35200] [35201-35400] [35401-35600] [35601-35800] [35801-36000] [36001-36200] [36201-36400] [36401-36600] [36601-36800] [36801-37000] [37001-37200] [37201-37400] [37401-37600] [37601-37800] [37801-38000] [38001-38200] [38201-38400] [38401-38600] [38601-38800] [38801-39000] [39001-39200] [39201-39400] [39401-39600] [39601-39800] [39801-40000] [40001-40200] [40201-40400] [40401-40600] [40601-40800] [40801-41000] [41001-41200] [41201-41400] [41401-41600] [41601-41800] [41801-42000] [42001-42200] [42201-42400] [42401-42600] [42601-42800] [42801-43000] [43001-43200] [43201-43400] [43401-43600] [43601-43800] [43801-44000] [44001-44200] [44201-44400] [44401-44600] [44601-44800] [44801-45000] [45001-45200] [45201-45400] [45401-45600] [45601-45800] [45801-46000] [46001-46200] [46201-46400] [46401-46600] [46601-46800] [46801-47000] [47001-47200] [47201-47400] [47401-47600] [47601-47800] [47801-48000] [48001-48200] [48201-48400] [48401-48600] [48601-48800] [48801-49000] [49001-49200] [49201-49400] [49401-49600] [49601-49800] [49801-50000] [50001-50200] [50201-50388]

Designation T Tech N Date Right Ascension Declination Apparent Magnitude Star Catalog Site code χ Used A Used M
yr-mo-day precision hr:min:sec precision rms F bias residual deg min sec precision rms F bias residual mag/col rms residual
2020WU2 O C K 2020-11-22.15844 1.000E-05 02:07:29.430 1.500E-01 0.500 F -0.546 0.317 -16° 35' 39.40" 1.000E-01 0.500 F 0.186 0.388 20.6 R 0.70 -0.41 o 691 1.02 Yes Yes
2020VJ3 O C K 2020-11-22.18631 1.000E-05 03:42:28.590 1.500E-01 0.500 F -0.017 -0.330 +28° 01' 14.40" 1.000E-01 0.500 F 0.172 -0.340 20.7 R 0.70 -0.43 o 691 0.97 Yes Yes
2020VJ3 O C K 2020-11-22.20075 1.000E-05 03:42:24.940 1.500E-01 0.500 F -0.021 -0.136 +28° 01' 19.70" 1.000E-01 0.500 F 0.161 0.014 21.7 R 0.70 0.57 o 691 0.28 Yes Yes
2020WS2 O C K 2020-11-22.21646 1.000E-05 03:34:03.170 1.500E-01 0.500 F -0.429 -0.003 -11° 52' 11.90" 1.000E-01 0.500 F 0.004 0.048 20.2 R 0.70 -0.02 o 691 0.10 Yes Yes
2020WS2 O C K 2020-11-22.22285 1.000E-05 03:34:05.360 1.500E-01 0.500 F -0.429 0.350 -11° 52' 29.00" 1.000E-01 0.500 F 0.004 -0.317 20.1 R 0.70 -0.12 o 691 0.96 Yes Yes
2020WQ1 O C K 2020-11-22.27549 1.000E-05 05:25:47.190 1.500E-01 0.500 F -0.162 0.000 +02° 30' 28.10" 1.000E-01 0.500 F 0.086 -0.001 20.4 R 0.70 -0.54 o 691 0.00 Yes Yes
2020WQ1 O C K 2020-11-22.28992 1.000E-05 05:25:49.320 1.500E-01 0.500 F -0.162 -0.044 +02° 29' 53.30" 1.000E-01 0.500 F 0.086 -0.337 21.1 R 0.70 0.16 o 691 0.69 Yes Yes
2020RR2 O C K 2020-11-22.30669 1.000E-05 05:24:56.620 1.500E-01 0.500 F -0.052 -0.192 -18° 34' 21.20" 1.000E-01 0.500 F -0.188 0.322 20.7 R 0.70 -1.07 o 691 0.76 Yes Yes
2020RR2 O C K 2020-11-22.32096 1.000E-05 05:24:56.560 1.500E-01 0.500 F -0.052 -0.161 -18° 34' 04.40" 1.000E-01 0.500 F -0.188 -0.010 20.5 R 0.70 -1.27 o 691 0.33 Yes Yes
2020RR2 O C K 2020-11-22.33525 1.000E-05 05:24:56.490 1.500E-01 0.500 F -0.052 -0.124 -18° 33' 46.90" 1.000E-01 0.500 F -0.188 0.170 21.5 R 0.70 -0.27 o 691 0.42 Yes Yes
2010JK33 O C K 2020-11-22.38990 1.000E-05 04:19:33.720 1.500E-01 0.500 F -0.016 -0.128 +27° 09' 15.10" 1.000E-01 0.500 F 0.303 0.138 21.3 R 0.70 -0.07 o 691 0.38 Yes Yes
2013YS2 O C K 2020-11-22.39892 1.000E-05 04:20:50.420 1.500E-01 0.500 F -0.122 -0.028 +29° 15' 12.80" 1.000E-01 0.500 F 0.143 -0.176 21.5 R 0.70 1.32 o 691 0.36 Yes Yes
2010JK33 O C K 2020-11-22.40341 1.000E-05 04:19:31.940 1.500E-01 0.500 F -0.016 0.437 +27° 09' 12.30" 1.000E-01 0.500 F 0.303 0.246 22.0 R 0.70 0.63 o 691 1.02 Yes Yes
2013YS2 O C K 2020-11-22.41244 1.000E-05 04:20:50.790 1.500E-01 0.500 F -0.122 -0.173 +29° 15' 06.30" 1.000E-01 0.500 F 0.143 0.023 21.1 R 0.70 0.92 o 691 0.35 Yes Yes
2010JK33 O C K 2020-11-22.41693 1.000E-05 04:19:30.090 1.500E-01 0.500 F -0.016 0.039 +27° 09' 08.90" 1.000E-01 0.500 F 0.303 -0.211 22.3 R 0.70 0.93 o 691 0.43 Yes Yes
2013YS2 O C K 2020-11-22.42595 1.000E-05 04:20:51.210 1.500E-01 0.500 F -0.122 0.146 +29° 14' 59.30" 1.000E-01 0.500 F 0.143 -0.131 20.8 R 0.70 0.63 o 691 0.40 Yes Yes
2020VZ5 O C K 2020-11-22.53713 1.000E-05 09:14:41.620 1.500E-01 0.500 F 0.096 0.135 +01° 29' 54.60" 1.000E-01 0.500 F 0.137 0.142 o 691 0.40 Yes No
2020VZ5 O C K 2020-11-22.54138 1.000E-05 09:14:41.070 1.500E-01 0.500 F 0.096 0.033 +01° 29' 35.10" 1.000E-01 0.500 F 0.137 -0.066 o 691 0.15 Yes No
2020HJ4 O C K 2020-11-23.06797 1.000E-05 21:13:04.620 1.500E-01 0.500 F -0.047 -0.493 -18° 15' 31.10" 1.000E-01 0.500 F 0.226 0.143 o 691 1.08 Yes No
2020HJ4 O C K 2020-11-23.07435 1.000E-05 21:13:07.260 1.500E-01 0.500 F -0.047 0.211 -18° 15' 19.60" 1.000E-01 0.500 F 0.226 0.107 o 691 0.51 Yes No
2020WE1 O C K 2020-11-23.09055 1.000E-05 01:50:10.300 1.500E-01 0.500 F -0.413 -0.090 -09° 52' 14.70" 1.000E-01 0.500 F 0.177 0.298 o 691 0.63 Yes No
2020WE1 O C K 2020-11-23.09471 1.000E-05 01:50:07.440 1.500E-01 0.500 F -0.413 -0.210 -09° 52' 32.00" 1.000E-01 0.500 F 0.177 0.226 o 691 0.63 Yes No
2020WE1 O C K 2020-11-23.09887 1.000E-05 01:50:04.620 1.500E-01 0.500 F -0.413 0.297 -09° 52' 49.40" 1.000E-01 0.500 F 0.177 0.055 o 691 0.61 Yes No
2006UL185 O C K 2020-11-23.11492 1.000E-05 02:35:48.070 1.500E-01 0.500 F -0.241 -0.168 +23° 35' 34.40" 1.000E-01 0.500 F 0.249 -0.251 19.8 R 0.70 0.25 o 691 0.61 Yes Yes
2016JU33 O C 2020-11-23.11762 1.000E-05 03:19:40.940 1.500E-01 0.500 F -0.155 -0.958 +29° 13' 10.60" 1.000E-01 0.500 F 0.420 -0.146 20.8 V 0.70 0.39 o 691 1.95 Yes Yes
2006UL185 O C K 2020-11-23.12464 1.000E-05 02:35:43.980 1.500E-01 0.500 F -0.241 -0.223 +23° 35' 42.60" 1.000E-01 0.500 F 0.249 0.337 19.6 R 0.70 0.05 o 691 0.82 Yes Yes
2016JU33 O C 2020-11-23.12911 1.000E-05 03:19:39.250 1.500E-01 0.500 F -0.155 -0.699 +29° 13' 07.40" 1.000E-01 0.500 F 0.420 0.330 20.8 V 0.70 0.39 o 691 1.55 Yes Yes
2006UL185 O C K 2020-11-23.13435 1.000E-05 02:35:39.920 1.500E-01 0.500 F -0.241 0.137 +23° 35' 50.00" 1.000E-01 0.500 F 0.249 0.170 19.7 R 0.70 0.14 o 691 0.44 Yes Yes
2016JU33 O C 2020-11-23.13883 1.000E-05 03:19:37.810 1.500E-01 0.500 F -0.155 -0.554 +29° 13' 04.00" 1.000E-01 0.500 F 0.420 0.064 20.7 V 0.70 0.29 o 691 1.12 Yes Yes
2020VJ3 O C K 2020-11-23.15510 1.000E-05 03:38:52.450 1.500E-01 0.500 F -0.033 -0.137 +28° 05' 00.20" 1.000E-01 0.500 F 0.160 0.162 o 691 0.44 Yes No
2020VJ3 O C K 2020-11-23.18071 1.000E-05 03:38:46.730 1.500E-01 0.500 F -0.033 -0.127 +28° 05' 06.60" 1.000E-01 0.500 F 0.160 -0.675 o 691 1.41 Yes No
2019XS O C H 2020-11-23.19259 1.000E-05 03:44:07.440 1.500E-01 0.500 F -0.018 -0.241 +29° 30' 32.20" 1.000E-01 0.500 F 0.183 0.077 19.8 R 0.70 0.74 o 691 0.51 Yes Yes
2020VJ3 O C K 2020-11-23.20653 1.000E-05 03:38:40.910 1.500E-01 0.500 F -0.033 -0.407 +28° 05' 13.70" 1.000E-01 0.500 F 0.160 -0.439 o 691 1.22 Yes No
2019XS O C H 2020-11-23.21840 1.000E-05 03:43:56.560 1.500E-01 0.500 F -0.018 0.127 +29° 30' 20.30" 1.000E-01 0.500 F 0.183 0.092 19.3 R 0.70 0.23 o 691 0.32 Yes Yes
2020WS2 O C K 2020-11-23.22810 1.000E-05 03:40:52.480 1.500E-01 0.500 F -0.382 -0.520 -12° 37' 54.40" 1.000E-01 0.500 F 0.021 0.892 19.6 R 0.70 -0.47 o 691 2.12 Yes Yes
2020WS2 O C K 2020-11-23.23476 1.000E-05 03:40:55.180 1.500E-01 0.500 F -0.382 0.054 -12° 38' 14.60" 1.000E-01 0.500 F 0.021 0.090 o 691 0.21 Yes No
2007US12 O C K 2020-11-23.26549 1.000E-05 04:10:33.160 1.500E-01 0.500 F -0.236 -0.141 +03° 48' 38.70" 1.000E-01 0.500 F 0.125 0.258 20.9 R 0.70 0.09 o 691 0.59 Yes Yes
2007US12 O C K 2020-11-23.27270 1.000E-05 04:10:31.240 1.500E-01 0.500 F -0.236 0.227 +03° 48' 29.90" 1.000E-01 0.500 F 0.125 0.102 21.3 R 0.70 0.48 o 691 0.51 Yes Yes
2007US12 O C K 2020-11-23.27991 1.000E-05 04:10:29.330 1.500E-01 0.500 F -0.236 0.751 +03° 48' 21.70" 1.000E-01 0.500 F 0.125 0.547 20.7 R 0.70 -0.12 o 691 1.89 Yes Yes
2010JK33 O C K 2020-11-23.28928 1.000E-05 04:17:37.990 1.500E-01 0.500 F -0.115 -0.127 +27° 06' 10.90" 1.000E-01 0.500 F 0.244 0.216 o 691 0.50 Yes No
2010JK33 O C K 2020-11-23.30956 1.000E-05 04:17:35.280 1.500E-01 0.500 F -0.115 -0.252 +27° 06' 06.60" 1.000E-01 0.500 F 0.244 0.120 o 691 0.57 Yes No
2013YS2 O C H 2020-11-23.32018 1.000E-05 04:21:37.190 1.500E-01 0.500 F -0.072 -0.428 +29° 08' 32.20" 1.000E-01 0.500 F 0.170 0.005 20.5 R 0.70 0.40 o 691 0.86 Yes Yes
2013YS2 O C H 2020-11-23.32242 1.000E-05 04:21:37.300 1.500E-01 0.500 F -0.072 0.262 +29° 08' 30.90" 1.000E-01 0.500 F 0.170 -0.259 20.9 R 0.70 0.80 o 691 0.74 Yes Yes
2013YS2 O C H 2020-11-23.32467 1.000E-05 04:21:37.310 1.500E-01 0.500 F -0.072 -0.363 +29° 08' 29.70" 1.000E-01 0.500 F 0.170 -0.414 20.8 R 0.70 0.70 o 691 1.11 Yes Yes
2009KK O C H 2020-11-23.32673 1.000E-05 04:20:54.050 1.500E-01 0.500 F -0.148 0.122 +14° 49' 50.40" 1.000E-01 0.500 F 0.237 -0.152 19.9 R 0.70 0.65 o 691 0.39 Yes Yes
2009KK O C H 2020-11-23.32808 1.000E-05 04:20:53.820 1.500E-01 0.500 F -0.148 0.939 +14° 49' 53.20" 1.000E-01 0.500 F 0.237 -0.149 19.6 R 0.70 0.35 o 691 1.92 Yes Yes
2009KK O C H 2020-11-23.32942 1.000E-05 04:20:53.470 1.500E-01 0.500 F -0.148 -0.015 +14° 49' 56.30" 1.000E-01 0.500 F 0.237 0.176 19.2 R 0.70 -0.05 o 691 0.35 Yes Yes
2014MD55 O C K 2020-11-23.33263 1.000E-05 04:14:54.800 1.500E-01 0.500 F -0.178 1.872 +09° 37' 25.00" 1.000E-01 0.500 F 0.255 1.284 o 691 4.36 No No
2014MD55 O C K 2020-11-23.36138 1.000E-05 04:14:52.650 1.500E-01 0.500 F -0.178 -0.010 +09° 37' 14.20" 1.000E-01 0.500 F 0.255 -0.733 o 691 1.51 Yes No
2020UO O C K 2020-11-23.37420 1.000E-05 04:20:17.100 1.500E-01 0.500 F -0.125 0.046 +02° 26' 40.60" 1.000E-01 0.500 F 0.344 -0.108 22.0 R 0.70 0.21 o 691 0.27 Yes Yes
2014MD55 O C K 2020-11-23.39012 1.000E-05 04:14:50.640 1.500E-01 0.500 F -0.178 0.134 +09° 37' 06.00" 1.000E-01 0.500 F 0.255 -0.134 o 691 0.41 Yes No
2020UO O C K 2020-11-23.40295 1.000E-05 04:20:19.350 1.500E-01 0.500 F -0.125 0.077 +02° 26' 53.80" 1.000E-01 0.500 F 0.344 -0.307 21.7 R 0.70 -0.09 o 691 0.71 Yes Yes
2010BH2 O C K 2020-11-23.50972 1.000E-05 11:07:54.070 1.500E-01 0.500 F 0.140 1.023 +10° 59' 49.30" 1.000E-01 0.500 F 0.172 0.734 o 691 2.74 Yes No
2010BH2 O C K 2020-11-23.52082 1.000E-05 11:07:56.530 1.500E-01 0.500 F 0.140 -0.392 +10° 59' 48.80" 1.000E-01 0.500 F 0.172 -0.288 o 691 1.11 Yes No
2010BH2 O C K 2020-11-23.53193 1.000E-05 11:07:59.110 1.500E-01 0.500 F 0.140 -0.060 +10° 59' 49.80" 1.000E-01 0.500 F 0.172 0.194 o 691 0.43 Yes No
2020WE1 O C K 2020-11-24.12684 1.000E-05 01:37:57.040 1.500E-01 0.500 F -0.214 -0.954 -11° 05' 24.60" 1.000E-01 0.500 F 0.256 -0.274 20.0 R 0.70 -0.01 o 691 2.03 Yes Yes
2020WE1 O C K 2020-11-24.14199 1.000E-05 01:37:45.540 1.500E-01 0.500 F -0.214 -1.197 -11° 06' 31.00" 1.000E-01 0.500 F 0.256 -0.369 20.7 R 0.70 0.69 o 691 2.56 Yes Yes
2020US2 O C K 2020-11-24.15780 1.000E-05 01:07:17.980 1.500E-01 0.500 F -0.342 0.236 +16° 05' 45.00" 1.000E-01 0.500 F 0.414 -0.137 21.3 R 0.70 0.26 o 691 0.56 Yes Yes
2020UF7 O C K 2020-11-24.17149 1.000E-05 02:18:48.860 1.500E-01 0.500 F -0.301 -0.768 -12° 20' 40.70" 1.000E-01 0.500 F 0.191 -0.722 20.5 R 0.70 -0.03 o 691 2.12 Yes Yes
2020US2 O C K 2020-11-24.17920 1.000E-05 01:07:23.830 1.500E-01 0.500 F -0.342 -0.170 +16° 06' 19.20" 1.000E-01 0.500 F 0.414 -0.168 o 691 0.50 Yes No
2020UF7 O C K 2020-11-24.19327 1.000E-05 02:18:47.590 1.500E-01 0.500 F -0.301 0.060 -12° 20' 57.30" 1.000E-01 0.500 F 0.191 0.809 20.0 R 0.70 -0.53 o 691 1.63 Yes Yes
2020US2 O C K 2020-11-24.20107 1.000E-05 01:07:29.820 1.500E-01 0.500 F -0.342 -0.365 +16° 06' 53.10" 1.000E-01 0.500 F 0.414 -0.969 21.2 R 0.70 0.16 o 691 2.14 Yes Yes
2020UF7 O C K 2020-11-24.23425 1.000E-05 02:18:45.030 1.500E-01 0.500 F -0.301 -0.036 -12° 21' 31.20" 1.000E-01 0.500 F 0.191 -0.048 20.4 R 0.70 -0.13 o 691 0.12 Yes Yes
2020WQ1 O C K 2020-11-24.25174 1.000E-05 05:31:16.960 1.500E-01 0.500 F -0.136 0.395 +01° 07' 33.30" 1.000E-01 0.500 F 0.124 0.324 21.1 R 0.70 0.30 o 691 1.03 Yes Yes
2020WQ1 O C K 2020-11-24.27347 1.000E-05 05:31:20.500 1.500E-01 0.500 F -0.136 -0.002 +01° 06' 35.40" 1.000E-01 0.500 F 0.124 -0.019 21.0 R 0.70 0.21 o 691 0.04 Yes Yes
2020WR4 O C K 2020-11-24.37842 1.000E-05 03:54:47.120 1.500E-01 0.500 F -0.134 0.258 +07° 03' 51.30" 1.000E-01 0.500 F 0.272 0.285 20.7 R 0.70 0.59 o 691 0.81 Yes Yes
2020WR4 O C K 2020-11-24.39320 1.000E-05 03:54:54.120 1.500E-01 0.500 F -0.134 0.295 +07° 04' 48.30" 1.000E-01 0.500 F 0.272 0.211 20.4 R 0.70 0.30 o 691 0.79 Yes Yes
2020WR4 O C K 2020-11-24.40797 1.000E-05 03:55:01.180 1.500E-01 0.500 F -0.134 0.386 +07° 05' 45.20" 1.000E-01 0.500 F 0.272 0.070 21.0 R 0.70 0.90 o 691 0.89 Yes Yes
2020WB4 O C K 2020-11-24.41809 1.000E-05 04:05:21.520 1.500E-01 0.500 F -0.259 -0.352 +14° 53' 30.20" 1.000E-01 0.500 F 0.176 -0.002 20.8 R 0.70 0.24 o 691 0.80 Yes Yes
2020WB4 O C K 2020-11-24.42906 1.000E-05 04:05:21.350 1.500E-01 0.500 F -0.259 0.237 +14° 53' 44.20" 1.000E-01 0.500 F 0.176 0.087 21.4 R 0.70 0.84 o 691 0.57 Yes Yes
2020WB4 O C K 2020-11-24.44004 1.000E-05 04:05:21.160 1.500E-01 0.500 F -0.259 0.113 +14° 53' 57.30" 1.000E-01 0.500 F 0.176 -0.662 20.8 R 0.70 0.24 o 691 1.41 Yes Yes
2020VJ3 O C K 2020-11-24.45199 1.000E-05 03:34:36.440 1.500E-01 0.500 F -0.133 0.198 +28° 08' 31.80" 1.000E-01 0.500 F 0.239 0.072 o 691 0.44 Yes No
2020VJ3 O C K 2020-11-24.47483 1.000E-05 03:34:32.210 1.500E-01 0.500 F -0.133 0.366 +28° 08' 32.20" 1.000E-01 0.500 F 0.239 -0.273 o 691 0.95 Yes No
2017WA15 O C K 2020-11-25.06085 1.000E-05 20:16:04.460 1.500E-01 0.500 F -0.023 0.059 -07° 44' 36.30" 1.000E-01 0.500 F 0.309 0.306 o 691 0.68 Yes No
2017WA15 O C K 2020-11-25.08503 1.000E-05 20:16:11.690 1.500E-01 0.500 F -0.023 0.103 -07° 43' 48.40" 1.000E-01 0.500 F 0.309 -0.177 o 691 0.44 Yes No
2017WA15 O C K 2020-11-25.10643 1.000E-05 20:16:18.070 1.500E-01 0.500 F -0.023 -0.196 -07° 43' 05.40" 1.000E-01 0.500 F 0.309 -0.003 o 691 0.43 Yes No
2012HD20 O C K 2020-11-25.13081 1.000E-05 22:22:39.690 1.500E-01 0.500 F -0.182 -0.234 -24° 13' 31.60" 1.000E-01 0.500 F 0.607 -0.095 o 691 0.52 Yes No
1998VD32 O C K 2020-11-25.14837 1.000E-05 23:01:54.300 1.500E-01 0.500 F -0.098 0.525 +12° 09' 59.80" 1.000E-01 0.500 F 0.178 -0.167 20.4 R 0.70 0.78 o 691 1.13 Yes Yes
2012HD20 O C K 2020-11-25.15583 1.000E-05 22:22:38.340 1.500E-01 0.500 F -0.165 0.170 -24° 13' 06.10" 1.000E-01 0.500 F 0.533 0.598 21.7 R 0.70 0.35 o 691 1.27 Yes Yes
1998VD32 O C K 2020-11-25.17338 1.000E-05 23:01:41.390 1.500E-01 0.500 F -0.098 0.766 +12° 09' 04.90" 1.000E-01 0.500 F 0.178 0.427 19.5 R 0.70 -0.12 o 691 1.82 Yes Yes
2020WD1 O C K 2020-11-25.19448 1.000E-05 03:49:28.160 1.500E-01 0.500 F -0.210 -0.995 -05° 54' 58.60" 1.000E-01 0.500 F 0.285 0.437 20.9 R 0.70 0.26 o 691 2.18 Yes Yes
2020WD1 O C K 2020-11-25.20580 1.000E-05 03:49:27.180 1.500E-01 0.500 F -0.210 -0.803 -05° 55' 06.50" 1.000E-01 0.500 F 0.285 0.335 o 691 1.75 Yes No
2020WD1 O C K 2020-11-25.21712 1.000E-05 03:49:26.230 1.500E-01 0.500 F -0.210 -0.037 -05° 55' 14.50" 1.000E-01 0.500 F 0.285 0.107 o 691 0.23 Yes No
2020WZ3 O C K 2020-11-25.23145 1.000E-05 04:58:01.740 1.500E-01 0.500 F -0.158 -0.918 +12° 11' 51.50" 1.000E-01 0.500 F 0.142 -0.196 20.0 R 0.70 -0.50 o 691 1.91 Yes Yes
2020WY O C K 2020-11-25.24221 1.000E-05 04:57:24.680 1.500E-01 0.500 F -0.131 -0.542 +00° 23' 15.20" 1.000E-01 0.500 F 0.158 -0.415 20.4 R 0.70 -0.35 o 691 1.37 Yes Yes
2020WZ3 O C K 2020-11-25.25229 1.000E-05 04:57:54.400 1.500E-01 0.500 F -0.158 -0.613 +12° 09' 53.40" 1.000E-01 0.500 F 0.142 0.021 20.8 R 0.70 0.30 o 691 1.25 Yes Yes
2020WY O C K 2020-11-25.26305 1.000E-05 04:57:19.520 1.500E-01 0.500 F -0.131 -0.246 +00° 23' 41.40" 1.000E-01 0.500 F 0.158 0.478 20.4 R 0.70 -0.35 o 691 1.08 Yes Yes
2020WZ3 O C K 2020-11-25.27312 1.000E-05 04:57:47.010 1.500E-01 0.500 F -0.158 -0.170 +12° 07' 55.00" 1.000E-01 0.500 F 0.142 0.053 o 691 0.36 Yes No
2020WY O C K 2020-11-25.28388 1.000E-05 04:57:14.220 1.500E-01 0.500 F -0.131 -1.045 +00° 24' 06.30" 1.000E-01 0.500 F 0.158 0.076 20.9 R 0.70 0.15 o 691 2.11 Yes Yes
2020WZ4 O C K 2020-11-25.30432 1.000E-05 05:22:53.860 1.500E-01 0.500 F -0.222 0.083 -00° 21' 47.00" 1.000E-01 0.500 F 0.124 0.117 18.7 R 0.70 -0.34 o 691 0.29 Yes Yes
2020TT7 O C 2020-11-25.30807 1.000E-05 05:25:52.100 1.500E-01 0.500 F -0.147 -0.378 -13° 12' 57.80" 1.000E-01 0.500 F 0.021 0.119 20.5 V 0.70 -0.34 o 691 0.80 Yes Yes
2020TT7 O C 2020-11-25.32795 1.000E-05 05:25:53.410 1.500E-01 0.500 F -0.147 -0.114 -13° 13' 12.80" 1.000E-01 0.500 F 0.021 0.029 20.9 V 0.70 0.06 o 691 0.24 Yes Yes
2020WZ4 O C K 2020-11-25.33976 1.000E-05 05:22:30.240 1.500E-01 0.500 F -0.222 -0.237 -00° 21' 21.20" 1.000E-01 0.500 F 0.124 0.157 18.9 R 0.70 -0.14 o 691 0.58 Yes Yes
2020TT7 O C 2020-11-25.34783 1.000E-05 05:25:54.690 1.500E-01 0.500 F -0.147 -0.192 -13° 13' 27.40" 1.000E-01 0.500 F 0.021 0.208 21.0 V 0.70 0.16 o 691 0.57 Yes Yes
2020WJ4 O C K 2020-11-25.36010 1.000E-05 08:13:30.220 1.500E-01 0.500 F -0.043 -0.074 +12° 54' 42.70" 1.000E-01 0.500 F 0.144 -0.054 20.4 R 0.70 -0.34 o 691 0.19 Yes Yes
2006LD1 O C K 2020-11-25.36986 1.000E-05 07:31:01.100 1.500E-01 0.500 F -0.138 0.071 +25° 15' 45.20" 1.000E-01 0.500 F 0.304 0.145 20.0 R 0.70 0.27 o 691 0.33 Yes Yes
2020WJ4 O C K 2020-11-25.38695 1.000E-05 08:13:34.970 1.500E-01 0.500 F -0.043 -0.231 +12° 54' 54.80" 1.000E-01 0.500 F 0.144 0.225 20.9 R 0.70 0.16 o 691 0.65 Yes Yes
2006LD1 O C K 2020-11-25.39671 1.000E-05 07:30:52.500 1.500E-01 0.500 F -0.138 -0.284 +25° 16' 29.90" 1.000E-01 0.500 F 0.304 -0.160 19.6 R 0.70 -0.13 o 691 0.67 Yes Yes
2020WJ4 O C K 2020-11-25.41379 1.000E-05 08:13:39.720 1.500E-01 0.500 F -0.043 -0.092 +12° 55' 06.20" 1.000E-01 0.500 F 0.144 -0.108 o 691 0.29 Yes No
2006LD1 O C K 2020-11-25.42355 1.000E-05 07:30:43.920 1.500E-01 0.500 F -0.138 -0.243 +25° 17' 14.60" 1.000E-01 0.500 F 0.304 -0.086 o 691 0.53 Yes No
2020WC5 O C 2020-11-25.44977 1.000E-05 08:57:43.540 1.500E-01 0.500 F 0.217 0.014 +04° 21' 26.80" 1.000E-01 0.500 F 0.196 -0.230 20.7 V 0.70 -0.45 o 691 0.46 Yes Yes
2020WC5 O C 2020-11-25.46750 1.000E-05 08:57:46.430 1.500E-01 0.500 F 0.217 -0.467 +04° 22' 05.70" 1.000E-01 0.500 F 0.196 0.057 21.4 V 0.70 0.25 o 691 0.94 Yes Yes
2020WC5 O C 2020-11-25.48522 1.000E-05 08:57:49.370 1.500E-01 0.500 F 0.217 -0.148 +04° 22' 44.00" 1.000E-01 0.500 F 0.196 -0.253 21.1 V 0.70 -0.05 o 691 0.59 Yes Yes
2020VZ5 O C K 2020-11-25.51192 1.000E-05 09:08:34.190 1.500E-01 0.500 F 0.023 0.181 -02° 19' 04.40" 1.000E-01 0.500 F 0.053 0.032 20.0 R 0.70 -0.23 o 691 0.37 Yes Yes
2020VZ5 O C K 2020-11-25.51719 1.000E-05 09:08:33.430 1.500E-01 0.500 F 0.023 0.077 -02° 19' 29.10" 1.000E-01 0.500 F 0.053 0.063 20.6 R 0.70 0.37 o 691 0.20 Yes Yes
2020VZ5 O C K 2020-11-25.52247 1.000E-05 09:08:32.670 1.500E-01 0.500 F 0.023 -0.005 -02° 19' 53.90" 1.000E-01 0.500 F 0.053 0.041 19.9 R 0.70 -0.32 o 691 0.08 Yes Yes
2016EE156 O C 2020-11-25.52916 1.000E-05 06:44:31.930 1.500E-01 0.500 F -0.175 -0.179 -23° 09' 12.70" 1.000E-01 0.500 F -0.020 -0.118 20.6 V 0.70 0.31 o 691 0.43 Yes Yes
2016EE156 O C 2020-11-25.53498 1.000E-05 06:44:31.020 1.500E-01 0.500 F -0.175 -0.329 -23° 09' 10.60" 1.000E-01 0.500 F -0.020 -0.306 20.3 V 0.70 0.01 o 691 0.91 Yes Yes
2016EE156 O C 2020-11-25.54082 1.000E-05 06:44:30.110 1.500E-01 0.500 F -0.175 -0.443 -23° 09' 07.60" 1.000E-01 0.500 F -0.020 0.395 20.8 V 0.70 0.51 o 691 1.21 Yes Yes
2017UP2 O C K 2020-11-26.08230 1.000E-05 20:10:27.390 1.500E-01 0.500 F 0.042 0.332 +02° 11' 43.40" 1.000E-01 0.500 F 0.156 0.531 20.8 R 0.70 0.11 o 691 1.26 Yes Yes
2020HJ4 O C K 2020-11-26.09123 1.000E-05 21:33:40.660 1.500E-01 0.500 F -0.287 -0.029 -16° 40' 33.10" 1.000E-01 0.500 F 0.282 -0.241 21.8 R 0.70 0.71 o 691 0.49 Yes Yes
2017UP2 O C K 2020-11-26.10413 1.000E-05 20:10:26.820 1.500E-01 0.500 F 0.042 -0.121 +02° 11' 24.10" 1.000E-01 0.500 F 0.156 0.413 o 691 0.89 Yes No
2020HJ4 O C K 2020-11-26.11306 1.000E-05 21:33:49.390 1.500E-01 0.500 F -0.287 -0.286 -16° 39' 49.90" 1.000E-01 0.500 F 0.282 -0.163 21.5 R 0.70 0.41 o 691 0.70 Yes Yes
2017UP2 O C K 2020-11-26.12596 1.000E-05 20:10:26.340 1.500E-01 0.500 F 0.042 0.513 +02° 11' 04.60" 1.000E-01 0.500 F 0.156 0.132 21.2 R 0.70 0.51 o 691 1.06 Yes Yes
2020UZ3 O C K 2020-11-26.13880 1.000E-05 22:03:41.460 1.500E-01 0.500 F -0.046 0.088 +14° 55' 28.10" 1.000E-01 0.500 F 0.329 0.038 16.9 R 0.70 -1.89 o 691 0.20 Yes Yes
2010VA12 O C K 2020-11-26.14378 1.000E-05 22:42:07.580 1.500E-01 0.500 F -0.047 0.268 -21° 57' 50.30" 1.000E-01 0.500 F 0.015 -0.101 20.7 R 0.70 0.57 o 691 0.58 Yes Yes
2020UZ3 O C K 2020-11-26.15637 1.000E-05 22:03:33.160 1.500E-01 0.500 F -0.046 0.075 +14° 57' 24.50" 1.000E-01 0.500 F 0.329 -0.170 16.8 R 0.70 -1.99 o 691 0.38 Yes No
2010VA12 O C K 2020-11-26.16126 1.000E-05 22:42:01.910 1.500E-01 0.500 F -0.047 0.316 -21° 57' 22.70" 1.000E-01 0.500 F 0.015 -0.318 20.3 R 0.70 0.17 o 691 0.91 Yes Yes
2020UZ3 O C K 2020-11-26.17391 1.000E-05 22:03:24.910 1.500E-01 0.500 F -0.046 0.253 +14° 59' 20.80" 1.000E-01 0.500 F 0.329 -0.142 16.9 R 0.70 -1.89 o 691 0.59 Yes Yes
2010VA12 O C K 2020-11-26.17877 1.000E-05 22:41:56.220 1.500E-01 0.500 F -0.047 0.096 -21° 56' 54.10" 1.000E-01 0.500 F 0.015 0.350 20.1 R 0.70 -0.03 o 691 0.73 Yes Yes
2020UE4 O C K 2020-11-26.25206 1.000E-05 00:17:55.270 1.500E-01 0.500 F -0.242 0.180 +04° 01' 26.40" 1.000E-01 0.500 F 0.228 1.048 20.2 R 0.70 -0.12 o 691 2.22 Yes Yes
2020UE4 O C K 2020-11-26.26000 1.000E-05 00:17:50.170 1.500E-01 0.500 F -0.242 0.248 +04° 01' 10.00" 1.000E-01 0.500 F 0.228 0.129 20.3 R 0.70 -0.02 o 691 0.59 Yes Yes
2020WZ3 O C K 2020-11-26.28503 1.000E-05 04:52:52.800 1.500E-01 0.500 F -0.003 0.091 +10° 35' 41.90" 1.000E-01 0.500 F 0.072 0.349 20.9 R 0.70 0.30 o 691 0.73 Yes Yes
2020WZ3 O C K 2020-11-26.30026 1.000E-05 04:52:47.820 1.500E-01 0.500 F -0.003 -0.059 +10° 34' 23.40" 1.000E-01 0.500 F 0.072 0.319 20.2 R 0.70 -0.40 o 691 0.66 Yes Yes
2020WZ3 O C K 2020-11-26.31548 1.000E-05 04:52:42.840 1.500E-01 0.500 F -0.003 -0.147 +10° 33' 04.90" 1.000E-01 0.500 F 0.072 0.325 21.1 R 0.70 0.50 o 691 0.72 Yes Yes
2006UL185 O C K 2020-11-26.33398 1.000E-05 02:14:22.090 1.500E-01 0.500 F -0.083 -0.109 +24° 08' 19.20" 1.000E-01 0.500 F 0.216 0.096 19.6 R 0.70 -0.20 o 691 0.29 Yes Yes
2019XS O C K 2020-11-26.34126 1.000E-05 03:26:54.490 1.500E-01 0.500 F -0.183 -0.288 +28° 58' 44.00" 1.000E-01 0.500 F 0.328 0.068 o 691 0.60 Yes No
2016JU33 O C 2020-11-26.34935 1.000E-05 03:11:37.600 1.500E-01 0.500 F -0.099 -0.062 +28° 50' 26.10" 1.000E-01 0.500 F 0.285 -0.290 20.3 V 0.70 -0.05 o 691 0.60 Yes Yes
2006UL185 O C K 2020-11-26.36246 1.000E-05 02:14:10.950 1.500E-01 0.500 F -0.083 0.223 +24° 08' 31.90" 1.000E-01 0.500 F 0.216 0.237 19.3 R 0.70 -0.51 o 691 0.66 Yes Yes
2019XS O C K 2020-11-26.36974 1.000E-05 03:26:46.000 1.500E-01 0.500 F -0.183 -0.401 +28° 58' 23.80" 1.000E-01 0.500 F 0.328 0.080 19.9 R 0.70 0.33 o 691 0.83 Yes Yes
2016JU33 O C 2020-11-26.38450 1.000E-05 03:11:31.910 1.500E-01 0.500 F -0.099 -0.553 +28° 50' 07.70" 1.000E-01 0.500 F 0.285 -0.453 20.1 V 0.70 -0.25 o 691 1.44 Yes Yes
2006UL185 O C K 2020-11-26.39093 1.000E-05 02:13:59.830 1.500E-01 0.500 F -0.083 0.006 +24° 08' 43.80" 1.000E-01 0.500 F 0.216 -0.144 19.9 R 0.70 0.09 o 691 0.29 Yes Yes
2019XS O C K 2020-11-26.39822 1.000E-05 03:26:37.680 1.500E-01 0.500 F -0.194 0.130 +28° 58' 02.50" 1.000E-01 0.500 F 0.375 -0.223 19.4 R 0.70 -0.17 o 691 0.52 Yes Yes
2016JU33 O C 2020-11-26.41799 1.000E-05 03:11:26.610 1.500E-01 0.500 F -0.099 0.027 +28° 49' 50.30" 1.000E-01 0.500 F 0.285 -0.141 20.3 V 0.70 -0.05 o 691 0.29 Yes Yes
2020VZ5 O C K 2020-11-26.44143 1.000E-05 09:06:30.810 1.500E-01 0.612 F 0.052 0.596 -03° 32' 05.30" 1.000E-01 0.612 F 0.065 -0.075 20.5 R 0.70 0.30 o 691 0.99 Yes Yes
2020VZ5 O C K 2020-11-26.44604 1.000E-05 09:06:30.100 1.500E-01 0.612 F 0.052 0.114 -03° 32' 27.00" 1.000E-01 0.612 F 0.065 0.066 19.9 R 0.70 -0.30 o 691 0.22 Yes Yes
2020VZ5 O C K 2020-11-26.45064 1.000E-05 09:06:29.400 1.500E-01 0.612 F 0.052 -0.229 -03° 32' 49.00" 1.000E-01 0.612 F 0.065 -0.141 19.7 R 0.70 -0.49 o 691 0.44 Yes Yes
2020VZ5 O C K 2020-11-26.45526 1.000E-05 09:06:28.700 1.500E-01 0.612 F 0.052 -0.517 -03° 33' 10.40" 1.000E-01 0.612 F 0.065 0.346 20.4 R 0.70 0.21 o 691 1.02 Yes Yes
2020VZ5 O C K 2020-11-26.46184 1.000E-05 09:06:27.760 1.500E-01 0.612 F 0.052 -0.059 -03° 33' 42.30" 1.000E-01 0.612 F 0.065 -0.381 19.7 R 0.70 -0.49 o 691 0.63 Yes Yes
2020VZ5 O C K 2020-11-26.46843 1.000E-05 09:06:26.780 1.500E-01 0.612 F 0.052 -0.161 -03° 34' 13.30" 1.000E-01 0.612 F 0.065 -0.163 20.3 R 0.70 0.11 o 691 0.38 Yes Yes
2020UL1 O C K 2020-12-03.21647 1.000E-05 01:33:55.810 1.500E-01 0.500 F -0.255 0.533 -27° 28' 27.70" 1.000E-01 0.500 F 0.368 -0.209 20.5 R 0.70 0.31 o 691 1.16 Yes Yes
2020VX1 O C K 2020-12-03.22358 1.000E-05 02:29:38.550 1.500E-01 0.500 F -0.157 -0.133 -03° 25' 16.90" 1.000E-01 0.500 F 0.094 -0.444 20.4 R 0.70 0.31 o 691 0.94 Yes Yes
2020UL1 O C K 2020-12-03.23248 1.000E-05 01:33:52.280 1.500E-01 0.500 F -0.255 2.841 -27° 29' 04.60" 1.000E-01 0.500 F 0.368 0.930 o 691 5.88 No No
2020VX1 O C K 2020-12-03.23961 1.000E-05 02:29:45.720 1.500E-01 0.500 F -0.157 0.043 -03° 24' 40.90" 1.000E-01 0.500 F 0.094 0.715 20.3 R 0.70 0.21 o 691 1.44 Yes Yes
2020VX1 O C K 2020-12-03.25562 1.000E-05 02:29:52.850 1.500E-01 0.500 F -0.157 -0.252 -03° 24' 05.70" 1.000E-01 0.500 F 0.094 1.101 21.0 R 0.70 0.91 o 691 2.28 Yes Yes
2020TH5 O C K 2020-12-04.17585 1.000E-05 00:26:33.990 1.500E-01 0.500 F -0.294 0.024 -09° 37' 20.50" 1.000E-01 0.500 F 0.272 -0.279 21.5 R 0.70 0.49 o 691 0.56 Yes Yes
2020TH5 O C K 2020-12-04.19381 1.000E-05 00:26:33.450 1.500E-01 0.500 F -0.294 0.741 -09° 37' 25.30" 1.000E-01 0.500 F 0.272 0.023 21.2 R 0.70 0.19 o 691 1.48 Yes Yes
2020TH5 O C K 2020-12-04.21177 1.000E-05 00:26:32.820 1.500E-01 0.500 F -0.294 0.010 -09° 37' 30.10" 1.000E-01 0.500 F 0.272 0.280 21.6 R 0.70 0.59 o 691 0.56 Yes Yes
2020TB12 O C K 2020-12-04.24670 1.000E-05 02:29:18.450 1.500E-01 0.500 F -0.378 -0.399 -24° 34' 21.00" 1.000E-01 0.500 F 0.340 0.009 20.2 R 0.70 -0.70 o 691 0.80 Yes Yes
2020TB12 O C K 2020-12-04.26199 1.000E-05 02:29:17.230 1.500E-01 0.500 F -0.378 0.825 -24° 34' 30.00" 1.000E-01 0.500 F 0.340 -0.110 o 691 1.67 Yes No
2020TB12 O C K 2020-12-04.27717 1.000E-05 02:29:15.950 1.500E-01 0.500 F -0.378 1.016 -24° 34' 37.70" 1.000E-01 0.500 F 0.340 0.893 o 691 2.72 Yes No
2020VT O C K 2020-12-04.29630 1.000E-05 04:28:39.320 1.500E-01 0.500 F -0.229 0.579 -09° 51' 54.70" 1.000E-01 0.500 F 0.234 0.170 19.3 R 0.70 -0.56 o 691 1.23 Yes Yes
2020TT7 O C K 2020-12-04.30614 1.000E-05 05:37:14.060 1.500E-01 0.500 F -0.084 0.415 -14° 28' 24.90" 1.000E-01 0.500 F 0.147 -0.420 21.0 R 0.70 0.77 o 691 1.19 Yes Yes
2020VT O C K 2020-12-04.31552 1.000E-05 04:28:50.890 1.500E-01 0.500 F -0.214 0.344 -09° 52' 30.20" 1.000E-01 0.500 F 0.215 0.201 19.7 R 0.70 -0.16 o 691 0.81 Yes Yes
2020TT7 O C K 2020-12-04.32545 1.000E-05 05:37:15.140 1.500E-01 0.500 F -0.084 -0.320 -14° 28' 29.20" 1.000E-01 0.500 F 0.147 0.115 o 691 0.68 Yes No
2020VT O C K 2020-12-04.33485 1.000E-05 04:29:02.520 1.500E-01 0.500 F -0.214 -0.139 -09° 53' 05.60" 1.000E-01 0.500 F 0.215 0.102 o 691 0.35 Yes No
2020TT7 O C K 2020-12-04.34467 1.000E-05 05:37:16.270 1.500E-01 0.500 F -0.084 -0.199 -14° 28' 34.20" 1.000E-01 0.500 F 0.147 -0.223 o 691 0.60 Yes No
2011WL2 O C K 2020-12-04.36821 1.000E-05 06:29:45.690 1.500E-01 0.500 F 0.015 0.306 -16° 01' 09.40" 1.000E-01 0.500 F -0.176 0.431 20.4 R 0.70 0.42 o 691 1.06 Yes Yes
2011WL2 O C K 2020-12-04.37821 1.000E-05 06:29:43.830 1.500E-01 0.500 F 0.015 0.029 -16° 01' 22.40" 1.000E-01 0.500 F -0.176 -0.048 o 691 0.11 Yes No
2011WL2 O C K 2020-12-04.38821 1.000E-05 06:29:42.000 1.500E-01 0.500 F 0.015 0.187 -16° 01' 35.00" 1.000E-01 0.500 F -0.176 -0.158 o 691 0.49 Yes No
2020WT2 O C K 2020-12-04.42977 1.000E-05 10:50:39.430 1.500E-01 0.500 F 0.099 -0.008 +15° 42' 50.30" 1.000E-01 0.500 F 0.138 0.078 19.4 R 0.70 0.15 o 691 0.16 Yes Yes
2020WT2 O C K 2020-12-04.43664 1.000E-05 10:50:40.960 1.500E-01 0.500 F 0.099 0.330 +15° 41' 24.50" 1.000E-01 0.500 F 0.138 -0.350 19.5 R 0.70 0.25 o 691 0.97 Yes Yes
2020WT2 O C K 2020-12-04.44351 1.000E-05 10:50:42.410 1.500E-01 0.500 F 0.099 -0.420 +15° 39' 59.50" 1.000E-01 0.500 F 0.138 0.060 19.3 R 0.70 0.05 o 691 0.86 Yes Yes
2020WH2 O C K 2020-12-04.45935 1.000E-05 10:11:33.330 1.500E-01 0.500 F 0.185 -0.300 +26° 28' 47.70" 1.000E-01 0.500 F 0.235 -0.154 19.9 R 0.70 0.11 o 691 0.68 Yes Yes
2020WH2 O C K 2020-12-04.46818 1.000E-05 10:11:31.560 1.500E-01 0.500 F 0.185 -0.128 +26° 28' 04.20" 1.000E-01 0.500 F 0.235 -0.132 20.0 R 0.70 0.21 o 691 0.37 Yes Yes
2020WH2 O C K 2020-12-04.47702 1.000E-05 10:11:29.780 1.500E-01 0.500 F 0.185 -0.036 +26° 27' 20.60" 1.000E-01 0.500 F 0.235 -0.131 19.7 R 0.70 -0.09 o 691 0.27 Yes Yes
2016BZ14 O C K 2020-12-04.49174 1.000E-05 12:07:46.260 1.500E-01 0.500 F 0.339 0.217 -08° 45' 08.00" 1.000E-01 0.500 F 0.011 0.251 20.8 R 0.70 0.64 o 691 0.68 Yes Yes
2016BZ14 O C K 2020-12-04.50209 1.000E-05 12:07:49.670 1.500E-01 0.500 F 0.339 0.114 -08° 45' 05.20" 1.000E-01 0.500 F 0.011 -0.107 21.0 R 0.70 0.84 o 691 0.32 Yes Yes
2016BZ14 O C K 2020-12-04.51245 1.000E-05 12:07:53.090 1.500E-01 0.500 F 0.339 0.128 -08° 45' 01.70" 1.000E-01 0.500 F 0.011 0.226 20.6 R 0.70 0.44 o 691 0.53 Yes Yes
2009KK8 O C K 2020-12-05.09883 1.000E-05 00:12:35.840 1.500E-01 0.500 F -0.157 0.149 -02° 55' 43.30" 1.000E-01 0.500 F 0.322 0.362 o 691 0.79 Yes No
2020TH5 O C K 2020-12-05.10227 1.000E-05 00:26:12.480 1.500E-01 0.500 F -0.294 -0.139 -09° 41' 37.60" 1.000E-01 0.500 F 0.272 0.262 21.1 R 0.70 0.07 o 691 0.59 Yes Yes
2020UL1 O C K 2020-12-05.10712 1.000E-05 01:26:52.260 1.500E-01 0.500 F -0.306 -0.228 -28° 42' 25.40" 1.000E-01 0.500 F 0.177 0.165 21.3 R 0.70 1.09 o 691 0.57 Yes Yes
2009KK8 O C K 2020-12-05.11256 1.000E-05 00:12:37.980 1.500E-01 0.500 F -0.157 0.505 -02° 55' 27.30" 1.000E-01 0.500 F 0.322 -0.417 20.5 R 0.70 0.04 o 691 1.31 Yes Yes
2020TH5 O C K 2020-12-05.11601 1.000E-05 00:26:12.090 1.500E-01 0.500 F -0.294 0.173 -09° 41' 41.00" 1.000E-01 0.500 F 0.272 0.518 21.1 R 0.70 0.07 o 691 1.10 Yes Yes
2020UL1 O C K 2020-12-05.12085 1.000E-05 01:26:48.990 1.500E-01 0.500 F -0.306 -1.116 -28° 42' 57.30" 1.000E-01 0.500 F 0.177 0.103 o 691 2.28 Yes No
2009KK8 O C K 2020-12-05.12629 1.000E-05 00:12:40.080 1.500E-01 0.500 F -0.157 0.268 -02° 55' 09.80" 1.000E-01 0.500 F 0.322 0.305 20.9 R 0.70 0.44 o 691 0.81 Yes Yes
2020TH5 O C K 2020-12-05.12974 1.000E-05 00:26:11.650 1.500E-01 0.500 F -0.294 -0.264 -09° 41' 44.90" 1.000E-01 0.500 F 0.272 0.244 20.6 R 0.70 -0.43 o 691 0.72 Yes Yes
2020UL1 O C K 2020-12-05.13458 1.000E-05 01:26:45.900 1.500E-01 0.500 F -0.306 0.401 -28° 43' 29.70" 1.000E-01 0.500 F 0.177 -0.528 o 691 1.35 Yes No
2020TC7 O C K 2020-12-05.14598 1.000E-05 00:51:15.540 1.500E-01 0.500 F -0.418 0.364 -30° 41' 22.70" 1.000E-01 0.500 F 0.452 -0.117 o 691 0.80 Yes No
2020TC7 O C K 2020-12-05.15430 1.000E-05 00:51:13.890 1.500E-01 0.500 F -0.418 0.321 -30° 41' 28.90" 1.000E-01 0.500 F 0.452 -0.471 o 691 1.19 Yes No
2020TB12 O C H 2020-12-05.16923 1.000E-05 02:28:12.520 1.500E-01 0.500 F -0.378 0.899 -24° 43' 17.30" 1.000E-01 0.500 F 0.340 -0.077 o 691 1.81 Yes No
2020UF7 O C K 2020-12-05.17180 1.000E-05 02:18:27.800 1.500E-01 0.500 F -0.246 -0.120 -13° 41' 45.20" 1.000E-01 0.500 F 0.119 0.065 20.8 R 0.70 0.04 o 691 0.27 Yes Yes
2006UL185 O C K 2020-12-05.17728 1.000E-05 01:25:36.270 1.500E-01 0.500 F -0.227 0.107 +24° 44' 46.80" 1.000E-01 0.500 F 0.372 -0.424 19.9 R 0.70 -0.54 o 691 0.88 Yes Yes
2001SG276 O C 2020-12-05.17728 1.000E-05 01:22:44.350 1.500E-01 0.500 F -0.200 -0.402 +25° 12' 18.40" 1.000E-01 0.500 F 0.374 0.033 20.1 V 0.70 0.01 o 691 0.81 Yes Yes
2020TB12 O C H 2020-12-05.18416 1.000E-05 02:28:11.190 1.500E-01 0.500 F -0.378 0.113 -24° 43' 26.00" 1.000E-01 0.500 F 0.340 -0.186 o 691 0.44 Yes No
2020UF7 O C K 2020-12-05.18673 1.000E-05 02:18:27.500 1.500E-01 0.500 F -0.246 -0.133 -13° 41' 47.10" 1.000E-01 0.500 F 0.119 -0.053 21.2 R 0.70 0.44 o 691 0.29 Yes Yes
2006UL185 O C K 2020-12-05.19238 1.000E-05 01:25:31.960 1.500E-01 0.500 F -0.227 0.039 +24° 44' 48.30" 1.000E-01 0.500 F 0.372 0.109 20.6 R 0.70 0.16 o 691 0.23 Yes Yes
2001SG276 O C 2020-12-05.19383 1.000E-05 01:22:43.270 1.500E-01 0.500 F -0.200 -0.032 +25° 12' 22.10" 1.000E-01 0.500 F 0.374 0.008 20.3 V 0.70 0.21 o 691 0.07 Yes Yes
2020TB12 O C H 2020-12-05.19948 1.000E-05 02:28:09.880 1.500E-01 0.500 F -0.378 0.088 -24° 43' 34.90" 1.000E-01 0.500 F 0.340 -0.390 o 691 0.80 Yes No
2020UF7 O C K 2020-12-05.20206 1.000E-05 02:18:27.230 1.500E-01 0.500 F -0.246 0.466 -13° 41' 48.70" 1.000E-01 0.500 F 0.119 -0.038 20.6 R 0.70 -0.16 o 691 0.94 Yes Yes
2006UL185 O C K 2020-12-05.20780 1.000E-05 01:25:27.580 1.500E-01 0.500 F -0.227 0.178 +24° 44' 49.40" 1.000E-01 0.500 F 0.372 0.317 19.8 R 0.70 -0.64 o 691 0.73 Yes Yes
2001SG276 O C 2020-12-05.21071 1.000E-05 01:22:42.110 1.500E-01 0.500 F -0.200 -0.482 +25° 12' 25.70" 1.000E-01 0.500 F 0.374 -0.155 20.2 V 0.70 0.11 o 691 1.01 Yes Yes
2020RQ11 O C K 2020-12-05.23028 1.000E-05 23:53:09.420 1.500E-01 0.500 F -0.039 0.129 +20° 43' 53.80" 1.000E-01 0.500 F 0.261 0.040 21.1 R 0.70 0.74 o 691 0.27 Yes Yes
2020RQ11 O C K 2020-12-05.24550 1.000E-05 23:53:10.400 1.500E-01 0.500 F -0.039 0.404 +20° 45' 15.10" 1.000E-01 0.500 F 0.261 -0.066 20.4 R 0.70 0.04 o 691 0.83 Yes Yes
2020RQ11 O C K 2020-12-05.26074 1.000E-05 23:53:11.430 1.500E-01 0.500 F -0.039 1.022 +20° 46' 36.90" 1.000E-01 0.500 F 0.261 0.290 21.4 R 0.70 1.04 o 691 2.14 Yes Yes
2020VC7 O C K 2020-12-05.27234 1.000E-05 00:48:31.160 1.500E-01 0.500 F -0.220 0.222 +16° 51' 00.70" 1.000E-01 0.500 F 0.372 0.203 18.8 R 0.70 -0.45 o 691 0.61 Yes Yes
2020QQ6 O C 2020-12-05.27573 1.000E-05 00:59:57.500 1.500E-01 0.500 F -0.217 -0.272 +12° 10' 52.90" 1.000E-01 0.500 F 0.343 -0.505 20.5 V 0.70 0.25 o 691 1.15 Yes Yes
2020VC7 O C K 2020-12-05.27869 1.000E-05 00:48:35.050 1.500E-01 0.500 F -0.220 0.501 +16° 52' 08.60" 1.000E-01 0.500 F 0.372 0.122 19.4 R 0.70 0.15 o 691 1.04 Yes Yes
2020QQ6 O C 2020-12-05.28371 1.000E-05 00:59:58.660 1.500E-01 0.500 F -0.217 0.396 +12° 10' 56.50" 1.000E-01 0.500 F 0.343 0.097 20.6 V 0.70 0.35 o 691 0.82 Yes Yes
2020VC7 O C K 2020-12-05.28504 1.000E-05 00:48:38.920 1.500E-01 0.500 F -0.220 0.243 +16° 53' 16.80" 1.000E-01 0.500 F 0.372 0.353 19.3 R 0.70 0.05 o 691 0.87 Yes Yes

[1-200] [201-400] [401-600] [601-800] [801-1000] [1001-1200] [1201-1400] [1401-1600] [1601-1800] [1801-2000] [2001-2200] [2201-2400] [2401-2600] [2601-2800] [2801-3000] [3001-3200] [3201-3400] [3401-3600] [3601-3800] [3801-4000] [4001-4200] [4201-4400] [4401-4600] [4601-4800] [4801-5000] [5001-5200] [5201-5400] [5401-5600] [5601-5800] [5801-6000] [6001-6200] [6201-6400] [6401-6600] [6601-6800] [6801-7000] [7001-7200] [7201-7400] [7401-7600] [7601-7800] [7801-8000] [8001-8200] [8201-8400] [8401-8600] [8601-8800] [8801-9000] [9001-9200] [9201-9400] [9401-9600] [9601-9800] [9801-10000] [10001-10200] [10201-10400] [10401-10600] [10601-10800] [10801-11000] [11001-11200] [11201-11400] [11401-11600] [11601-11800] [11801-12000] [12001-12200] [12201-12400] [12401-12600] [12601-12800] [12801-13000] [13001-13200] [13201-13400] [13401-13600] [13601-13800] [13801-14000] [14001-14200] [14201-14400] [14401-14600] [14601-14800] [14801-15000] [15001-15200] [15201-15400] [15401-15600] [15601-15800] [15801-16000] [16001-16200] [16201-16400] [16401-16600] [16601-16800] [16801-17000] [17001-17200] [17201-17400] [17401-17600] [17601-17800] [17801-18000] [18001-18200] [18201-18400] [18401-18600] [18601-18800] [18801-19000] [19001-19200] [19201-19400] [19401-19600] [19601-19800] [19801-20000] [20001-20200] [20201-20400] [20401-20600] [20601-20800] [20801-21000] [21001-21200] [21201-21400] [21401-21600] [21601-21800] [21801-22000] [22001-22200] [22201-22400] [22401-22600] [22601-22800] [22801-23000] [23001-23200] [23201-23400] [23401-23600] [23601-23800] [23801-24000] [24001-24200] [24201-24400] [24401-24600] [24601-24800] [24801-25000] [25001-25200] [25201-25400] [25401-25600] [25601-25800] [25801-26000] [26001-26200] [26201-26400] [26401-26600] [26601-26800] [26801-27000] [27001-27200] [27201-27400] [27401-27600] [27601-27800] [27801-28000] [28001-28200] [28201-28400] [28401-28600] [28601-28800] [28801-29000] [29001-29200] [29201-29400] [29401-29600] [29601-29800] [29801-30000] [30001-30200] [30201-30400] [30401-30600] [30601-30800] [30801-31000] [31001-31200] [31201-31400] [31401-31600] [31601-31800] [31801-32000] [32001-32200] [32201-32400] [32401-32600] [32601-32800] [32801-33000] [33001-33200] [33201-33400] [33401-33600] [33601-33800] [33801-34000] [34001-34200] [34201-34400] [34401-34600] [34601-34800] [34801-35000] [35001-35200] [35201-35400] [35401-35600] [35601-35800] [35801-36000] [36001-36200] [36201-36400] [36401-36600] [36601-36800] [36801-37000] [37001-37200] [37201-37400] [37401-37600] [37601-37800] [37801-38000] [38001-38200] [38201-38400] [38401-38600] [38601-38800] [38801-39000] [39001-39200] [39201-39400] [39401-39600] [39601-39800] [39801-40000] [40001-40200] [40201-40400] [40401-40600] [40601-40800] [40801-41000] [41001-41200] [41201-41400] [41401-41600] [41601-41800] [41801-42000] [42001-42200] [42201-42400] [42401-42600] [42601-42800] [42801-43000] [43001-43200] [43201-43400] [43401-43600] [43601-43800] [43801-44000] [44001-44200] [44201-44400] [44401-44600] [44601-44800] [44801-45000] [45001-45200] [45201-45400] [45401-45600] [45601-45800] [45801-46000] [46001-46200] [46201-46400] [46401-46600] [46601-46800] [46801-47000] [47001-47200] [47201-47400] [47401-47600] [47601-47800] [47801-48000] [48001-48200] [48201-48400] [48401-48600] [48601-48800] [48801-49000] [49001-49200] [49201-49400] [49401-49600] [49601-49800] [49801-50000] [50001-50200] [50201-50388]